Time;durP1;ratioP1;P1;durP2;ratioP2;P2;SDS_P1;SDS_P2;PMS_P1;PMS_P2;Temp;Humidity;BMP_temperature;BMP_pressure;BME280_temperature;BME280_humidity;BME280_pressure;Samples;Min_cycle;Max_cycle;Signal;HPM_P1;HPM_P2
2021/12/23 00:00:34;;;;;;;;;;;;;;;;;;5135442;27;1025;-61
2021/12/23 00:02:59;;;;;;;;;;;;;;;;;;5136379;27;926;-61
2021/12/23 00:05:25;;;;;;;;;;;;;;;;;;5135629;27;958;-61
2021/12/23 00:07:50;;;;;;;;;;;;;;;;;;5154726;27;1913;-61
2021/12/23 00:10:15;;;;;;;;;;;;;;;;;;5154597;27;904;-61
2021/12/23 00:12:42;;;;;;;;;;;;;;;;;;5154797;27;1034;-61
2021/12/23 00:15:30;;;;;;;;;;;;;;;;;;5154672;27;840;-61
2021/12/23 00:18:00;;;;;;;;;;;;;;;;;;5154166;27;911;-61
2021/12/23 00:25:42;;;;;;;;;;;;;;;;;;5154056;27;614;-61
2021/12/23 00:28:08;;;;;;;;;;;;;;;;;;5154024;27;1902;-61
2021/12/23 00:30:33;;;;;;;;;;;;;;;;;;5153644;27;726;-61
2021/12/23 00:32:58;;;;;;;;;;;;;;;;;;5154180;27;914;-61
2021/12/23 00:35:24;;;;;;;;;;;;;;;;;;5154365;27;1106;-61
2021/12/23 00:37:55;;;;;;;;;;;;;;;;;;5135642;27;820;-62
2021/12/23 00:40:21;;;;;;;;;;;;;;;;;;5155582;27;918;-61
2021/12/23 00:42:46;;;;;;;;;;;;;;;;;;5156118;27;892;-60
2021/12/23 00:45:11;;;;;;;;;;;;;;;;;;5155911;27;844;-61
2021/12/23 00:47:36;;;;;;;;;;;;;;;;;;5154685;27;1957;-61
2021/12/23 00:50:02;;;;;;;;;;;;;;;;;;5155549;27;964;-61
2021/12/23 00:52:34;;;;;;;;;;;;;;;;;;5155034;27;1087;-62
2021/12/23 00:55:00;;;;;;;;;;;;;;;;;;5155065;27;868;-61
2021/12/23 00:57:28;;;;;;;;;;;;;;;;;;5153960;27;915;-60
2021/12/23 00:59:54;;;;;;;;;;;;;;;;;;5155899;27;853;-61
2021/12/23 01:02:24;;;;;;;;;;;;;;;;;;5155207;27;951;-61
2021/12/23 01:04:49;;;;;;;;;;;;;;;;;;5137385;27;1156;-61
2021/12/23 01:07:14;;;;;;;;;;;;;;;;;;5156031;27;1918;-61
2021/12/23 01:09:39;;;;;;;;;;;;;;;;;;5155529;27;911;-61
2021/12/23 01:12:05;;;;;;;;;;;;;;;;;;5155083;27;994;-61
2021/12/23 01:14:41;;;;;;;;;;;;;;;;;;5154708;27;1246;-61
2021/12/23 01:17:30;;;;;;;;;;;;;;;;;;5155307;27;909;-61
2021/12/23 01:19:57;;;;;;;;;;;;;;;;;;5154469;27;859;-61
2021/12/23 01:22:23;;;;;;;;;;;;;;;;;;5154955;27;910;-61
2021/12/23 01:24:49;;;;;;;;;;;;;;;;;;5154315;27;970;-61
2021/12/23 01:27:15;;;;;;;;;;;;;;;;;;5154284;27;1897;-61
2021/12/23 01:29:40;;;;;;;;;;;;;;;;;;5152793;27;859;-61
2021/12/23 01:32:06;;;;;;;;;;;;;;;;;;5153065;27;876;-61
2021/12/23 01:34:33;;;;;;;;;;;;;;;;;;5152887;27;890;-61
2021/12/23 01:36:59;;;;;;;;;;;;;;;;;;5153149;27;868;-61
2021/12/23 01:39:24;;;;;;;;;;;;;;;;;;5152668;27;800;-61
2021/12/23 01:41:50;;;;;;;;;;;;;;;;;;5134033;27;1201;-61
2021/12/23 01:44:15;;;;;;;;;;;;;;;;;;5123360;27;1150;-61
2021/12/23 01:46:40;;;;;;;;;;;;;;;;;;5148559;27;1905;-61
2021/12/23 01:49:05;;;;;;;;;;;;;;;;;;5152307;27;1324;-61
2021/12/23 01:51:31;;;;;;;;;;;;;;;;;;5152454;27;1039;-61
2021/12/23 01:53:56;;;;;;;;;;;;;;;;;;5152938;27;793;-61
2021/12/23 01:56:23;;;;;;;;;;;;;;;;;;5152738;27;824;-61
2021/12/23 01:58:49;;;;;;;;;;;;;;;;;;5152408;27;923;-61
2021/12/23 02:01:14;;;;;;;;;;;;;;;;;;5153142;27;1058;-61
2021/12/23 02:03:39;;;;;;;;;;;;;;;;;;5152267;27;883;-61
2021/12/23 02:06:05;;;;;;;;;;;;;;;;;;5134113;27;1050;-61
2021/12/23 02:08:34;;;;;;;;;;;;;;;;;;5154565;27;1969;-61
2021/12/23 02:11:00;;;;;;;;;;;;;;;;;;5157075;27;942;-61
2021/12/23 02:13:26;;;;;;;;;;;;;;;;;;5156709;27;943;-61
2021/12/23 02:15:51;;;;;;;;;;;;;;;;;;5138712;27;773;-61
2021/12/23 02:18:17;;;;;;;;;;;;;;;;;;5138202;27;1282;-61
2021/12/23 02:20:42;;;;;;;;;;;;;;;;;;5156165;27;891;-61
2021/12/23 02:23:08;;;;;;;;;;;;;;;;;;5156109;27;761;-61
2021/12/23 02:25:34;;;;;;;;;;;;;;;;;;5156501;27;910;-61
2021/12/23 02:28:04;;;;;;;;;;;;;;;;;;5156883;27;1893;-61
2021/12/23 02:30:30;;;;;;;;;;;;;;;;;;5156209;27;891;-61
2021/12/23 02:32:56;;;;;;;;;;;;;;;;;;5157119;27;840;-61
2021/12/23 02:35:22;;;;;;;;;;;;;;;;;;5156414;27;914;-61
2021/12/23 02:37:47;;;;;;;;;;;;;;;;;;5156750;27;816;-61
2021/12/23 02:40:22;;;;;;;;;;;;;;;;;;5120843;27;1210;-61
2021/12/23 02:42:48;;;;;;;;;;;;;;;;;;5156633;27;972;-61
2021/12/23 02:45:14;;;;;;;;;;;;;;;;;;5138772;27;875;-61
2021/12/23 02:47:39;;;;;;;;;;;;;;;;;;5137176;27;1897;-61
2021/12/23 02:50:05;;;;;;;;;;;;;;;;;;5156714;27;903;-61
2021/12/23 02:52:31;;;;;;;;;;;;;;;;;;5155608;27;1163;-61
2021/12/23 02:54:57;;;;;;;;;;;;;;;;;;5156690;27;840;-61
2021/12/23 02:57:24;;;;;;;;;;;;;;;;;;5156543;27;1226;-61
2021/12/23 02:59:49;;;;;;;;;;;;;;;;;;5156264;27;816;-61
2021/12/23 03:02:14;;;;;;;;;;;;;;;;;;5156479;27;911;-61
2021/12/23 03:04:39;;;;;;;;;;;;;;;;;;5155496;27;912;-61
2021/12/23 03:07:05;;;;;;;;;;;;;;;;;;5155848;27;1963;-61
2021/12/23 03:09:30;;;;;;;;;;;;;;;;;;5155564;27;887;-61
2021/12/23 03:11:55;;;;;;;;;;;;;;;;;;5155431;27;785;-61
2021/12/23 03:14:20;;;;;;;;;;;;;;;;;;5137255;27;1611;-61
2021/12/23 03:16:46;;;;;;;;;;;;;;;;;;5155644;27;825;-61
2021/12/23 03:19:12;;;;;;;;;;;;;;;;;;5154533;27;1126;-61
2021/12/23 03:21:37;;;;;;;;;;;;;;;;;;5136680;27;931;-61
2021/12/23 03:24:02;;;;;;;;;;;;;;;;;;5137384;27;899;-61
2021/12/23 03:26:28;;;;;;;;;;;;;;;;;;5155231;27;1091;-61
2021/12/23 03:28:53;;;;;;;;;;;;;;;;;;5155531;27;1909;-61
2021/12/23 03:31:19;;;;;;;;;;;;;;;;;;5155397;27;871;-61
2021/12/23 03:33:44;;;;;;;;;;;;;;;;;;5155183;27;796;-61
2021/12/23 03:36:09;;;;;;;;;;;;;;;;;;5137072;27;1073;-61
2021/12/23 03:38:35;;;;;;;;;;;;;;;;;;5154864;27;994;-61
2021/12/23 03:41:00;;;;;;;;;;;;;;;;;;5155438;27;1314;-61
2021/12/23 03:43:26;;;;;;;;;;;;;;;;;;5136361;27;1430;-61
2021/12/23 03:45:52;;;;;;;;;;;;;;;;;;5154838;27;919;-61
2021/12/23 03:48:18;;;;;;;;;;;;;;;;;;5155310;27;1945;-61
2021/12/23 03:50:45;;;;;;;;;;;;;;;;;;5118965;27;1766;-61
2021/12/23 03:53:11;;;;;;;;;;;;;;;;;;5155125;27;704;-61
2021/12/23 03:55:36;;;;;;;;;;;;;;;;;;5154147;27;1037;-61
2021/12/23 03:58:01;;;;;;;;;;;;;;;;;;5154819;27;816;-61
2021/12/23 04:00:27;;;;;;;;;;;;;;;;;;5154623;27;911;-61
2021/12/23 04:02:52;;;;;;;;;;;;;;;;;;5154217;27;877;-61
2021/12/23 04:05:19;;;;;;;;;;;;;;;;;;5154703;27;998;-61
2021/12/23 04:07:44;;;;;;;;;;;;;;;;;;5154154;27;1949;-61
2021/12/23 04:10:10;;;;;;;;;;;;;;;;;;5154134;27;900;-61
2021/12/23 04:12:36;;;;;;;;;;;;;;;;;;5154199;27;919;-61
2021/12/23 04:15:01;;;;;;;;;;;;;;;;;;5153985;27;1151;-61
2021/12/23 04:17:26;;;;;;;;;;;;;;;;;;5153988;27;911;-61
2021/12/23 04:19:55;;;;;;;;;;;;;;;;;;5134878;27;962;-61
2021/12/23 04:22:20;;;;;;;;;;;;;;;;;;5135996;27;884;-61
2021/12/23 04:24:46;;;;;;;;;;;;;;;;;;5153732;27;1068;-61
2021/12/23 04:27:12;;;;;;;;;;;;;;;;;;5154053;27;1909;-61
2021/12/23 04:29:37;;;;;;;;;;;;;;;;;;5153879;27;919;-62
2021/12/23 04:32:02;;;;;;;;;;;;;;;;;;5153279;27;951;-61
2021/12/23 04:34:27;;;;;;;;;;;;;;;;;;5153721;27;903;-61
2021/12/23 04:36:53;;;;;;;;;;;;;;;;;;5153347;27;970;-61
2021/12/23 04:39:18;;;;;;;;;;;;;;;;;;5153646;27;891;-61
2021/12/23 04:41:44;;;;;;;;;;;;;;;;;;5153565;27;892;-61
2021/12/23 04:44:09;;;;;;;;;;;;;;;;;;5153960;27;896;-61
2021/12/23 04:46:34;;;;;;;;;;;;;;;;;;5153474;27;880;-61
2021/12/23 04:48:59;;;;;;;;;;;;;;;;;;5153675;27;1984;-61
2021/12/23 04:51:25;;;;;;;;;;;;;;;;;;5153695;27;1284;-61
2021/12/23 04:53:50;;;;;;;;;;;;;;;;;;5135079;27;891;-61
2021/12/23 04:56:17;;;;;;;;;;;;;;;;;;5153604;27;967;-61
2021/12/23 04:58:42;;;;;;;;;;;;;;;;;;5153181;27;895;-61
2021/12/23 05:01:10;;;;;;;;;;;;;;;;;;5153878;27;863;-61
2021/12/23 05:03:36;;;;;;;;;;;;;;;;;;5153476;27;852;-61
2021/12/23 05:06:01;;;;;;;;;;;;;;;;;;5153818;27;1061;-61
2021/12/23 05:08:26;;;;;;;;;;;;;;;;;;5134835;27;1943;-61
2021/12/23 05:10:51;;;;;;;;;;;;;;;;;;5153459;27;963;-61
2021/12/23 05:13:17;;;;;;;;;;;;;;;;;;5154367;27;1237;-61
2021/12/23 05:15:42;;;;;;;;;;;;;;;;;;5153145;27;907;-61
2021/12/23 05:18:08;;;;;;;;;;;;;;;;;;5134951;27;863;-61
2021/12/23 05:20:33;;;;;;;;;;;;;;;;;;5153474;27;868;-61
2021/12/23 05:22:58;;;;;;;;;;;;;;;;;;5153072;27;978;-61
2021/12/23 05:25:24;;;;;;;;;;;;;;;;;;5153636;27;788;-61
2021/12/23 05:27:54;;;;;;;;;;;;;;;;;;5153199;27;1901;-61
2021/12/23 05:30:20;;;;;;;;;;;;;;;;;;5153392;27;1219;-61
2021/12/23 05:32:45;;;;;;;;;;;;;;;;;;5152338;27;1598;-61
2021/12/23 05:35:11;;;;;;;;;;;;;;;;;;5153583;27;995;-61
2021/12/23 05:37:37;;;;;;;;;;;;;;;;;;5153048;27;860;-61
2021/12/23 05:40:03;;;;;;;;;;;;;;;;;;5152802;27;836;-61
2021/12/23 05:42:28;;;;;;;;;;;;;;;;;;5152318;27;970;-61
2021/12/23 05:44:53;;;;;;;;;;;;;;;;;;5152317;27;887;-61
2021/12/23 05:47:18;;;;;;;;;;;;;;;;;;5152633;27;1901;-61
2021/12/23 05:49:44;;;;;;;;;;;;;;;;;;5152418;27;836;-61
2021/12/23 05:52:09;;;;;;;;;;;;;;;;;;5152517;27;1371;-61
2021/12/23 05:54:34;;;;;;;;;;;;;;;;;;5134387;27;832;-61
2021/12/23 05:57:02;;;;;;;;;;;;;;;;;;5152566;27;871;-61
2021/12/23 05:59:31;;;;;;;;;;;;;;;;;;5134101;27;1316;-61
2021/12/23 06:01:57;;;;;;;;;;;;;;;;;;5152209;27;829;-61
2021/12/23 06:04:22;;;;;;;;;;;;;;;;;;5134161;27;1002;-61
2021/12/23 06:06:47;;;;;;;;;;;;;;;;;;5152319;27;1967;-61
2021/12/23 06:09:13;;;;;;;;;;;;;;;;;;5153135;27;1050;-61
2021/12/23 06:11:38;;;;;;;;;;;;;;;;;;5133844;27;2363;-61
2021/12/23 06:14:03;;;;;;;;;;;;;;;;;;5152062;27;891;-61
2021/12/23 06:16:28;;;;;;;;;;;;;;;;;;5152598;27;824;-61
2021/12/23 06:18:54;;;;;;;;;;;;;;;;;;5151712;27;959;-61
2021/12/23 06:21:20;;;;;;;;;;;;;;;;;;5151908;27;1146;-61
2021/12/23 06:23:45;;;;;;;;;;;;;;;;;;5143112;27;1147;-61
2021/12/23 06:26:11;;;;;;;;;;;;;;;;;;5147163;27;1170;-61
2021/12/23 06:28:37;;;;;;;;;;;;;;;;;;5131048;28;1965;-60
2021/12/23 06:31:02;;;;;;;;;;;;;;;;;;5130834;28;896;-60
2021/12/23 06:33:27;;;;;;;;;;;;;;;;;;5131249;28;781;-60
2021/12/23 06:35:53;;;;;;;;;;;;;;;;;;5130864;28;923;-60
2021/12/23 06:38:18;;;;;;;;;;;;;;;;;;5131375;28;816;-60
2021/12/23 06:40:43;;;;;;;;;;;;;;;;;;5096388;28;809;-60
2021/12/23 06:43:09;;;;;;;;;;;;;;;;;;5130797;28;1093;-60
2021/12/23 06:45:34;;;;;;;;;;;;;;;;;;5131313;28;852;-60
2021/12/23 06:47:59;;;;;;;;;;;;;;;;;;5111701;28;1969;-59
2021/12/23 06:50:25;;;;;;;;;;;;;;;;;;5130802;28;1411;-60
2021/12/23 06:52:51;;;;;;;;;;;;;;;;;;5130897;28;773;-60
2021/12/23 06:55:17;;;;;;;;;;;;;;;;;;5134012;27;1509;-59
2021/12/23 06:57:43;;;;;;;;;;;;;;;;;;5134837;27;868;-60
2021/12/23 07:00:09;;;;;;;;;;;;;;;;;;5134373;27;1213;-60
2021/12/23 07:02:38;;;;;;;;;;;;;;;;;;5134023;27;1776;-60
2021/12/23 07:05:04;;;;;;;;;;;;;;;;;;5134583;27;769;-60
2021/12/23 07:07:29;;;;;;;;;;;;;;;;;;5116104;27;1901;-60
2021/12/23 07:09:55;;;;;;;;;;;;;;;;;;5134438;27;820;-60
2021/12/23 07:12:21;;;;;;;;;;;;;;;;;;5134783;27;863;-60
2021/12/23 07:14:46;;;;;;;;;;;;;;;;;;5134613;27;947;-60
2021/12/23 07:17:11;;;;;;;;;;;;;;;;;;5135201;27;891;-60
2021/12/23 07:19:37;;;;;;;;;;;;;;;;;;5134667;27;879;-60
2021/12/23 07:22:02;;;;;;;;;;;;;;;;;;5134516;27;903;-60
2021/12/23 07:24:28;;;;;;;;;;;;;;;;;;5134747;27;994;-60
2021/12/23 07:26:53;;;;;;;;;;;;;;;;;;5115768;27;1901;-60
2021/12/23 07:29:18;;;;;;;;;;;;;;;;;;5135149;27;632;-60
2021/12/23 07:31:44;;;;;;;;;;;;;;;;;;5115745;27;896;-61
2021/12/23 07:34:09;;;;;;;;;;;;;;;;;;5133957;27;971;-60
2021/12/23 07:36:34;;;;;;;;;;;;;;;;;;5134988;27;1006;-60
2021/12/23 07:39:00;;;;;;;;;;;;;;;;;;5134440;27;836;-60
2021/12/23 07:41:29;;;;;;;;;;;;;;;;;;5134541;27;1052;-60
2021/12/23 07:44:03;;;;;;;;;;;;;;;;;;5133868;27;804;-60
2021/12/23 07:46:30;;;;;;;;;;;;;;;;;;5134387;27;811;-60
2021/12/23 07:48:56;;;;;;;;;;;;;;;;;;5134331;27;1907;-60
2021/12/23 07:51:22;;;;;;;;;;;;;;;;;;5134658;27;1194;-60
2021/12/23 07:53:47;;;;;;;;;;;;;;;;;;5134277;27;900;-60
2021/12/23 07:56:12;;;;;;;;;;;;;;;;;;5134030;27;867;-60
2021/12/23 07:58:38;;;;;;;;;;;;;;;;;;5134258;27;844;-60
2021/12/23 08:01:03;;;;;;;;;;;;;;;;;;5133900;27;810;-60
2021/12/23 08:03:28;;;;;;;;;;;;;;;;;;5133782;27;994;-60
2021/12/23 08:05:54;;;;;;;;;;;;;;;;;;5132771;27;1054;-60
2021/12/23 08:08:20;;;;;;;;;;;;;;;;;;5133411;27;1973;-60
2021/12/23 08:10:46;;;;;;;;;;;;;;;;;;5133497;27;922;-60
2021/12/23 08:13:11;;;;;;;;;;;;;;;;;;5133164;27;1053;-60
2021/12/23 08:15:36;;;;;;;;;;;;;;;;;;5133283;27;1170;-60
2021/12/23 08:18:02;;;;;;;;;;;;;;;;;;5132974;27;852;-61
2021/12/23 08:20:28;;;;;;;;;;;;;;;;;;5133497;27;935;-61
2021/12/23 08:22:53;;;;;;;;;;;;;;;;;;5133370;27;840;-60
2021/12/23 08:25:19;;;;;;;;;;;;;;;;;;5133260;27;855;-60
2021/12/23 08:27:45;;;;;;;;;;;;;;;;;;5133057;27;1902;-60
2021/12/23 08:30:12;;;;;;;;;;;;;;;;;;5132966;27;931;-60
2021/12/23 08:32:38;;;;;;;;;;;;;;;;;;5132898;27;897;-61
2021/12/23 08:35:03;;;;;;;;;;;;;;;;;;5132750;27;891;-61
2021/12/23 08:37:29;;;;;;;;;;;;;;;;;;5133017;27;1104;-60
2021/12/23 08:39:54;;;;;;;;;;;;;;;;;;5132690;27;899;-60
2021/12/23 08:42:19;;;;;;;;;;;;;;;;;;5133005;27;883;-61
2021/12/23 08:44:45;;;;;;;;;;;;;;;;;;5132796;27;875;-61
2021/12/23 08:47:12;;;;;;;;;;;;;;;;;;5132652;27;1962;-60
2021/12/23 08:49:37;;;;;;;;;;;;;;;;;;5132703;27;1222;-60
2021/12/23 08:52:03;;;;;;;;;;;;;;;;;;5132085;27;1067;-60
2021/12/23 08:54:28;;;;;;;;;;;;;;;;;;5132946;27;832;-60
2021/12/23 08:56:53;;;;;;;;;;;;;;;;;;5132521;27;871;-60
2021/12/23 08:59:19;;;;;;;;;;;;;;;;;;5132359;27;841;-60
2021/12/23 09:01:45;;;;;;;;;;;;;;;;;;5132299;27;781;-60
2021/12/23 09:04:10;;;;;;;;;;;;;;;;;;5131785;27;1068;-60
2021/12/23 09:06:36;;;;;;;;;;;;;;;;;;5132370;27;887;-60
2021/12/23 09:09:02;;;;;;;;;;;;;;;;;;5131811;27;1910;-59
2021/12/23 09:11:27;;;;;;;;;;;;;;;;;;5132471;27;866;-60
2021/12/23 09:13:52;;;;;;;;;;;;;;;;;;5132533;27;874;-60
2021/12/23 09:16:18;;;;;;;;;;;;;;;;;;5132592;27;804;-60
2021/12/23 09:18:43;;;;;;;;;;;;;;;;;;5131873;27;1096;-60
2021/12/23 09:21:10;;;;;;;;;;;;;;;;;;5132619;27;867;-60
2021/12/23 09:23:35;;;;;;;;;;;;;;;;;;5132806;27;904;-60
2021/12/23 09:26:01;;;;;;;;;;;;;;;;;;5132639;27;817;-60
2021/12/23 09:28:41;;;;;;;;;;;;;;;;;;5132327;27;1913;-60
2021/12/23 09:33:51;;;;;;;;;;;;;;;;;;5133270;27;705;-60
2021/12/23 09:36:17;;;;;;;;;;;;;;;;;;5132660;27;1030;-60
2021/12/23 09:38:43;;;;;;;;;;;;;;;;;;5131696;27;1065;-60
2021/12/23 09:41:14;;;;;;;;;;;;;;;;;;5131669;27;1002;-60
2021/12/23 09:43:40;;;;;;;;;;;;;;;;;;5132275;27;817;-60
2021/12/23 09:46:06;;;;;;;;;;;;;;;;;;5132089;27;857;-60
2021/12/23 09:48:32;;;;;;;;;;;;;;;;;;5132477;27;1913;-60
2021/12/23 09:50:59;;;;;;;;;;;;;;;;;;5131633;27;1199;-60
2021/12/23 09:53:26;;;;;;;;;;;;;;;;;;5131342;27;904;-60
2021/12/23 09:55:51;;;;;;;;;;;;;;;;;;5131313;27;809;-60
2021/12/23 09:58:18;;;;;;;;;;;;;;;;;;5132080;27;978;-60
2021/12/23 10:00:45;;;;;;;;;;;;;;;;;;5131598;28;856;-60
2021/12/23 10:03:11;;;;;;;;;;;;;;;;;;5113297;28;888;-60
2021/12/23 10:05:37;;;;;;;;;;;;;;;;;;5131931;28;926;-60
2021/12/23 10:08:05;;;;;;;;;;;;;;;;;;5131415;28;1975;-61
2021/12/23 10:10:36;;;;;;;;;;;;;;;;;;5131870;28;966;-60
2021/12/23 10:37:29;;;;;;;;;;;;;;;;;;5135670;27;819;-60
2021/12/23 10:39:55;;;;;;;;;;;;;;;;;;5135383;27;828;-60
2021/12/23 10:42:24;;;;;;;;;;;;;;;;;;5135585;27;894;-60
2021/12/23 10:44:57;;;;;;;;;;;;;;;;;;5135558;27;1002;-61
2021/12/23 10:47:56;;;;;;;;;;;;;;;;;;5134988;27;1965;-60
2021/12/23 10:50:40;;;;;;;;;;;;;;;;;;5135467;27;1217;-60
2021/12/23 10:53:12;;;;;;;;;;;;;;;;;;5135071;27;894;-60
2021/12/23 10:58:23;;;;;;;;;;;;;;;;;;5136420;27;611;-60
2021/12/23 11:00:55;;;;;;;;;;;;;;;;;;5135312;27;843;-60
2021/12/23 11:03:29;;;;;;;;;;;;;;;;;;5136136;27;832;-60
2021/12/23 11:06:01;;;;;;;;;;;;;;;;;;5116813;27;927;-60
2021/12/23 11:08:47;;;;;;;;;;;;;;;;;;5135737;27;1910;-60
2021/12/23 11:28:40;;;;;;;;;;;;;;;;;;5134910;27;1901;-60
2021/12/23 11:46:11;;;;;;;;;;;;;;;;;;5134394;27;986;-60
2021/12/23 11:48:41;;;;;;;;;;;;;;;;;;5115061;27;1972;-60
2021/12/23 11:51:08;;;;;;;;;;;;;;;;;;5133482;27;1020;-60
2021/12/23 11:53:36;;;;;;;;;;;;;;;;;;5133325;27;1182;-60
2021/12/23 11:56:03;;;;;;;;;;;;;;;;;;5114894;27;876;-60
2021/12/23 11:58:29;;;;;;;;;;;;;;;;;;5115260;27;1050;-60
2021/12/23 12:01:01;;;;;;;;;;;;;;;;;;5133470;27;836;-60
2021/12/23 12:03:26;;;;;;;;;;;;;;;;;;5133242;27;912;-60
2021/12/23 12:05:52;;;;;;;;;;;;;;;;;;5133078;27;789;-61
2021/12/23 12:08:23;;;;;;;;;;;;;;;;;;5133642;27;1913;-60
2021/12/23 12:10:48;;;;;;;;;;;;;;;;;;5133516;27;836;-60
2021/12/23 12:13:16;;;;;;;;;;;;;;;;;;5114813;27;1068;-60
2021/12/23 12:15:47;;;;;;;;;;;;;;;;;;5114972;27;800;-60
2021/12/23 12:18:23;;;;;;;;;;;;;;;;;;5132856;27;836;-60
2021/12/23 12:20:56;;;;;;;;;;;;;;;;;;5115226;27;817;-60
2021/12/23 12:23:23;;;;;;;;;;;;;;;;;;5114429;27;1397;-60
2021/12/23 12:25:55;;;;;;;;;;;;;;;;;;5133300;27;875;-59
2021/12/23 12:28:22;;;;;;;;;;;;;;;;;;5114271;27;1968;-60
2021/12/23 12:31:06;;;;;;;;;;;;;;;;;;5132981;27;924;-60
2021/12/23 12:33:33;;;;;;;;;;;;;;;;;;5132847;27;820;-60
2021/12/23 12:35:58;;;;;;;;;;;;;;;;;;5132528;27;1013;-60
2021/12/23 12:38:26;;;;;;;;;;;;;;;;;;5132803;27;827;-60
2021/12/23 12:41:09;;;;;;;;;;;;;;;;;;5132703;27;918;-60
2021/12/23 12:43:49;;;;;;;;;;;;;;;;;;5132525;27;894;-60
2021/12/23 12:46:41;;;;;;;;;;;;;;;;;;5132889;27;828;-60
2021/12/23 12:49:14;;;;;;;;;;;;;;;;;;5132412;27;1907;-60
2021/12/23 12:51:41;;;;;;;;;;;;;;;;;;5114192;27;1111;-60
2021/12/23 12:54:08;;;;;;;;;;;;;;;;;;5132390;27;902;-60
2021/12/23 12:56:42;;;;;;;;;;;;;;;;;;5132324;27;874;-60
2021/12/23 12:59:07;;;;;;;;;;;;;;;;;;5132298;27;1950;-60
2021/12/23 13:01:34;;;;;;;;;;;;;;;;;;5113689;27;927;-60
2021/12/23 13:04:01;;;;;;;;;;;;;;;;;;5132183;27;903;-60
2021/12/23 13:06:36;;;;;;;;;;;;;;;;;;5132390;27;864;-60
2021/12/23 13:09:05;;;;;;;;;;;;;;;;;;5132044;27;1902;-60
2021/12/23 13:11:31;;;;;;;;;;;;;;;;;;5132426;27;811;-60
2021/12/23 13:14:04;;;;;;;;;;;;;;;;;;5132541;27;883;-60
2021/12/23 13:16:30;;;;;;;;;;;;;;;;;;5115098;27;821;-60
2021/12/23 13:19:25;;;;;;;;;;;;;;;;;;5114061;27;871;-60
2021/12/23 13:21:51;;;;;;;;;;;;;;;;;;5113804;27;1517;-60
2021/12/23 13:24:19;;;;;;;;;;;;;;;;;;5131886;27;872;-60
2021/12/23 13:26:44;;;;;;;;;;;;;;;;;;5131726;27;836;-60
2021/12/23 13:29:10;;;;;;;;;;;;;;;;;;5132145;27;1905;-60
2021/12/23 13:31:36;;;;;;;;;;;;;;;;;;5132563;27;855;-60
2021/12/23 13:34:03;;;;;;;;;;;;;;;;;;5132268;27;919;-60
2021/12/23 13:36:31;;;;;;;;;;;;;;;;;;5132273;27;1020;-60
2021/12/23 13:38:57;;;;;;;;;;;;;;;;;;5132380;27;923;-60
2021/12/23 13:41:26;;;;;;;;;;;;;;;;;;5132231;27;923;-61
2021/12/23 13:43:52;;;;;;;;;;;;;;;;;;5131744;27;824;-60
2021/12/23 13:46:18;;;;;;;;;;;;;;;;;;5131757;27;864;-60
2021/12/23 13:49:06;;;;;;;;;;;;;;;;;;5132377;27;1909;-61
2021/12/23 13:51:34;;;;;;;;;;;;;;;;;;5119922;27;1206;-60
2021/12/23 13:54:00;;;;;;;;;;;;;;;;;;5112965;28;686;-60
2021/12/23 13:56:29;;;;;;;;;;;;;;;;;;5131430;27;781;-61
2021/12/23 13:59:03;;;;;;;;;;;;;;;;;;5131182;27;821;-61
2021/12/23 14:01:28;;;;;;;;;;;;;;;;;;5131366;28;879;-61
2021/12/23 14:03:54;;;;;;;;;;;;;;;;;;5130758;27;1006;-61
2021/12/23 14:06:20;;;;;;;;;;;;;;;;;;5131312;28;678;-61
2021/12/23 14:08:45;;;;;;;;;;;;;;;;;;5131911;28;1980;-61
2021/12/23 14:11:10;;;;;;;;;;;;;;;;;;5131266;28;1002;-61
2021/12/23 14:13:36;;;;;;;;;;;;;;;;;;5131415;28;840;-61
2021/12/23 14:16:01;;;;;;;;;;;;;;;;;;5131233;28;935;-61
2021/12/23 14:23:59;;;;;;;;;;;;;;;;;;5131582;28;702;-61
2021/12/23 14:26:31;;;;;;;;;;;;;;;;;;5131225;28;828;-62
2021/12/23 14:29:07;;;;;;;;;;;;;;;;;;5130830;28;1972;-61
2021/12/23 14:31:34;;;;;;;;;;;;;;;;;;5131265;28;914;-61
2021/12/23 14:34:01;;;;;;;;;;;;;;;;;;5131487;28;883;-61
2021/12/23 14:36:29;;;;;;;;;;;;;;;;;;5131061;28;1062;-61
2021/12/23 14:38:59;;;;;;;;;;;;;;;;;;5131481;28;870;-61
2021/12/23 14:41:25;;;;;;;;;;;;;;;;;;5131484;28;850;-61
2021/12/23 14:43:56;;;;;;;;;;;;;;;;;;5131417;28;1950;-61
2021/12/23 14:46:28;;;;;;;;;;;;;;;;;;5131397;28;872;-61
2021/12/23 14:49:20;;;;;;;;;;;;;;;;;;5112605;28;1950;-61
2021/12/23 14:51:42;;;;;;;;;;;;;;;;;;5130737;28;1551;-61
2021/12/23 14:54:09;;;;;;;;;;;;;;;;;;5112257;28;1300;-61
2021/12/23 14:56:35;;;;;;;;;;;;;;;;;;5131194;28;847;-61
2021/12/23 14:59:02;;;;;;;;;;;;;;;;;;5130904;28;923;-60
2021/12/23 15:01:27;;;;;;;;;;;;;;;;;;5131266;28;1006;-61
2021/12/23 15:04:01;;;;;;;;;;;;;;;;;;5131040;28;773;-61
2021/12/23 15:06:27;;;;;;;;;;;;;;;;;;5131288;28;919;-61
2021/12/23 15:08:52;;;;;;;;;;;;;;;;;;5130545;28;1983;-61
2021/12/23 15:11:25;;;;;;;;;;;;;;;;;;5131431;28;761;-61
2021/12/23 15:13:50;;;;;;;;;;;;;;;;;;5131083;28;868;-61
2021/12/23 15:16:24;;;;;;;;;;;;;;;;;;5132746;27;990;-61
2021/12/23 15:19:14;;;;;;;;;;;;;;;;;;5134658;27;891;-61
2021/12/23 15:21:47;;;;;;;;;;;;;;;;;;5134748;27;894;-61
2021/12/23 15:24:15;;;;;;;;;;;;;;;;;;5134961;27;883;-61
2021/12/23 15:26:48;;;;;;;;;;;;;;;;;;5134420;27;828;-61
2021/12/23 15:29:15;;;;;;;;;;;;;;;;;;5134453;27;1959;-61
2021/12/23 15:31:42;;;;;;;;;;;;;;;;;;5134183;27;868;-61
2021/12/23 15:34:09;;;;;;;;;;;;;;;;;;5134789;27;835;-61
2021/12/23 15:36:36;;;;;;;;;;;;;;;;;;5133822;27;1102;-61
2021/12/23 15:39:12;;;;;;;;;;;;;;;;;;5133907;27;864;-60
2021/12/23 15:41:38;;;;;;;;;;;;;;;;;;5133768;27;860;-61
2021/12/23 15:44:03;;;;;;;;;;;;;;;;;;5133727;27;951;-61
2021/12/23 15:46:28;;;;;;;;;;;;;;;;;;5133978;27;812;-60
2021/12/23 15:48:53;;;;;;;;;;;;;;;;;;5133376;27;1906;-61
2021/12/23 15:51:19;;;;;;;;;;;;;;;;;;5133437;27;1389;-61
2021/12/23 15:53:44;;;;;;;;;;;;;;;;;;5133802;27;951;-60
2021/12/23 15:56:09;;;;;;;;;;;;;;;;;;5133564;27;935;-61
2021/12/23 15:58:35;;;;;;;;;;;;;;;;;;5133426;27;1046;-60
2021/12/23 16:01:01;;;;;;;;;;;;;;;;;;5133283;27;828;-61
2021/12/23 16:03:26;;;;;;;;;;;;;;;;;;5133739;27;845;-61
2021/12/23 16:08:36;;;;;;;;;;;;;;;;;;5133449;27;1913;-61
2021/12/23 16:11:01;;;;;;;;;;;;;;;;;;5132977;27;829;-60
2021/12/23 16:13:26;;;;;;;;;;;;;;;;;;5133892;27;879;-60
2021/12/23 16:15:52;;;;;;;;;;;;;;;;;;5133689;27;991;-61
2021/12/23 16:18:17;;;;;;;;;;;;;;;;;;5133576;27;891;-60
2021/12/23 16:20:42;;;;;;;;;;;;;;;;;;5133098;27;888;-61
2021/12/23 16:23:07;;;;;;;;;;;;;;;;;;5133148;27;852;-60
2021/12/23 16:25:34;;;;;;;;;;;;;;;;;;5133271;27;852;-60
2021/12/23 16:28:00;;;;;;;;;;;;;;;;;;5113920;27;1902;-61
2021/12/23 16:30:27;;;;;;;;;;;;;;;;;;5133356;27;781;-60
2021/12/23 16:32:54;;;;;;;;;;;;;;;;;;5132857;27;773;-60
2021/12/23 16:35:21;;;;;;;;;;;;;;;;;;5132693;27;1025;-60
2021/12/23 16:37:47;;;;;;;;;;;;;;;;;;5132791;27;927;-61
2021/12/23 16:40:17;;;;;;;;;;;;;;;;;;5132517;27;840;-60
2021/12/23 16:42:43;;;;;;;;;;;;;;;;;;5132605;27;804;-61
2021/12/23 16:45:09;;;;;;;;;;;;;;;;;;5133299;27;834;-60
2021/12/23 16:47:35;;;;;;;;;;;;;;;;;;5133369;27;1893;-61
2021/12/23 16:50:00;;;;;;;;;;;;;;;;;;5132623;27;939;-61
2021/12/23 16:52:26;;;;;;;;;;;;;;;;;;5132685;27;1332;-61
2021/12/23 16:55:05;;;;;;;;;;;;;;;;;;5132849;27;886;-61
2021/12/23 16:57:34;;;;;;;;;;;;;;;;;;5133379;27;903;-61
2021/12/23 17:00:09;;;;;;;;;;;;;;;;;;5132255;27;821;-61
2021/12/23 17:02:34;;;;;;;;;;;;;;;;;;5132820;27;966;-61
2021/12/23 17:04:59;;;;;;;;;;;;;;;;;;5132411;27;962;-61
2021/12/23 17:07:25;;;;;;;;;;;;;;;;;;5132847;27;1918;-61
2021/12/23 17:09:52;;;;;;;;;;;;;;;;;;5132548;27;848;-59
2021/12/23 17:12:17;;;;;;;;;;;;;;;;;;5113946;27;1110;-60
2021/12/23 17:14:42;;;;;;;;;;;;;;;;;;5132320;27;832;-60
2021/12/23 17:17:08;;;;;;;;;;;;;;;;;;5131862;27;829;-60
2021/12/23 17:19:35;;;;;;;;;;;;;;;;;;5132110;27;879;-62
2021/12/23 17:22:00;;;;;;;;;;;;;;;;;;5113391;27;903;-62
2021/12/23 17:24:27;;;;;;;;;;;;;;;;;;5132081;27;994;-62
2021/12/23 17:26:53;;;;;;;;;;;;;;;;;;5132054;27;930;-62
2021/12/23 17:29:19;;;;;;;;;;;;;;;;;;5131346;27;1906;-60
2021/12/23 17:31:45;;;;;;;;;;;;;;;;;;5131972;27;911;-62
2021/12/23 17:34:10;;;;;;;;;;;;;;;;;;5131748;27;820;-62
2021/12/23 17:36:37;;;;;;;;;;;;;;;;;;5131831;27;919;-62
2021/12/23 17:39:02;;;;;;;;;;;;;;;;;;5130056;27;970;-62
2021/12/23 17:41:28;;;;;;;;;;;;;;;;;;5131814;27;816;-62
2021/12/23 17:43:53;;;;;;;;;;;;;;;;;;5131492;27;951;-62
2021/12/23 17:46:18;;;;;;;;;;;;;;;;;;5131734;27;979;-62
2021/12/23 17:48:44;;;;;;;;;;;;;;;;;;5113208;27;1910;-62
2021/12/23 17:51:09;;;;;;;;;;;;;;;;;;5131373;27;1243;-59
2021/12/23 17:53:34;;;;;;;;;;;;;;;;;;5131850;27;856;-62
2021/12/23 17:56:00;;;;;;;;;;;;;;;;;;5131171;27;872;-62
2021/12/23 17:58:26;;;;;;;;;;;;;;;;;;5132207;27;826;-62
2021/12/23 18:00:52;;;;;;;;;;;;;;;;;;5131416;27;986;-62
2021/12/23 18:03:17;;;;;;;;;;;;;;;;;;5131786;28;891;-62
2021/12/23 18:05:43;;;;;;;;;;;;;;;;;;5131921;28;828;-62
2021/12/23 18:08:09;;;;;;;;;;;;;;;;;;5131442;28;1910;-60
2021/12/23 18:10:35;;;;;;;;;;;;;;;;;;5131638;28;840;-62
2021/12/23 18:13:00;;;;;;;;;;;;;;;;;;5131391;28;887;-62
2021/12/23 18:15:25;;;;;;;;;;;;;;;;;;5132690;28;785;-62
2021/12/23 18:17:51;;;;;;;;;;;;;;;;;;5131829;28;832;-62
2021/12/23 18:20:17;;;;;;;;;;;;;;;;;;5132222;28;868;-62
2021/12/23 18:22:42;;;;;;;;;;;;;;;;;;5132029;28;934;-62
2021/12/23 18:25:08;;;;;;;;;;;;;;;;;;5131707;28;761;-62
2021/12/23 18:27:33;;;;;;;;;;;;;;;;;;5132287;28;1921;-62
2021/12/23 18:29:59;;;;;;;;;;;;;;;;;;5131722;28;847;-62